Shelby — WCV6157 — position and weather

sailwx.info

Track history (hours):
 
Tides and Currents Weather Stations Pressure Air Temp Water Temp Dewpoint Dewpoint Depression Visibility Wind Speed Wind Dir Waves Ship Positions

Shelby

Owner: WEEKS MARINE, INC., CRANFORD, NJ. More information available from US FCC via Universal Licensing System and Coast Guard Vessel Documentation Center.

Last reported at 2017-Jun-27 22:30 UTC. Time now 2017-Jun-27 22:36 UTC.
Position N 40°32' W 074°02'.

Length 22 m; draft 3.1 m.

Type: Tug. MMSI: 366902344.

Date/timePositionNaut miles runAvg speedWind from/ knotsBaromVisibWave heightAir tempDewpointWater temp
2017-Jun-27 22:30N 40°32' W 074°02'4 8.4
2017-Jun-27 21:58N 40°28' W 074°01'0 1.1
2017-Jun-27 21:30N 40°28' W 074°01'1 2.8
2017-Jun-27 21:00N 40°29' W 074°01'2 4.7
2017-Jun-27 20:30N 40°29' W 073°58'3 3.6
2017-Jun-27 19:47N 40°28' W 073°55'1 1.9
2017-Jun-27 19:29N 40°29' W 073°55'4 5.4
2017-Jun-27 18:50N 40°29' W 073°59'2 4.6
2017-Jun-27 18:25N 40°27' W 074°01'0 0.5
2017-Jun-27 17:58N 40°28' W 074°01'1 1.7
2017-Jun-27 17:27N 40°28' W 074°02'1 0.3
2017-Jun-27 12:35N 40°29' W 074°03'0 5.8
2017-Jun-27 12:30N 40°29' W 074°03'2 3.2
2017-Jun-27 11:53N 40°27' W 074°01'1 3.4
2017-Jun-27 11:30N 40°28' W 074°02'4 7.2
2017-Jun-27 11:00N 40°32' W 074°03'3 5.4
2017-Jun-27 10:26N 40°29' W 074°02'2 2.6
2017-Jun-27 09:47N 40°28' W 074°01'1 4.5
2017-Jun-27 09:30N 40°29' W 074°01'2 4.1
2017-Jun-27 09:00N 40°29' W 073°59'3 4.1
2017-Jun-27 08:18N 40°29' W 073°55'1 1.9
2017-Jun-27 07:50N 40°29' W 073°56'410.5
2017-Jun-27 07:26N 40°28' W 074°01'1 2.6
2017-Jun-27 06:59N 40°28' W 074°01'0 0.0
2017-Jun-27 06:29N 40°28' W 074°01'0 0.0
2017-Jun-27 06:00N 40°28' W 074°01'0 0.0
2017-Jun-27 05:30N 40°27' W 074°01'0 0.0
2017-Jun-27 04:50N 40°27' W 074°01'2 4.9
2017-Jun-27 04:30N 40°29' W 073°60'42 9.2
2017-Jun-26 23:52N 39°47' W 074°04'4 9.9
2017-Jun-26 23:30N 39°43' W 074°05'510.4
2017-Jun-26 22:58N 39°38' W 074°08'510.3
2017-Jun-26 22:30N 39°34' W 074°10'16 7.9
2017-Jun-26 20:31N 39°21' W 074°23'0 4.8
2017-Jun-26 20:30N 39°22' W 074°23'1 0.1
2017-Jun-26 00:29N 39°22' W 074°24'1 1.4
2017-Jun-25 23:58N 39°22' W 074°23'2 3.1
2017-Jun-25 23:26N 39°23' W 074°25'0 0.0
2017-Jun-25 22:57N 39°23' W 074°25'0 0.0
2017-Jun-25 22:19N 39°23' W 074°25'0 0.0
2017-Jun-25 21:59N 39°23' W 074°25'0 0.0
2017-Jun-25 21:26N 39°23' W 074°25'0 0.0
2017-Jun-25 20:54N 39°23' W 074°25'2 4.5
2017-Jun-25 20:30N 39°22' W 074°23'0 0.6
2017-Jun-25 19:59N 39°22' W 074°24'0 0.2
2017-Jun-25 19:23N 39°22' W 074°23'2 4.3
2017-Jun-25 18:59N 39°23' W 074°25'0 0.1
2017-Jun-25 13:22N 39°23' W 074°25'1 2.0
2017-Jun-25 12:50N 39°22' W 074°24'0 0.9
2017-Jun-25 12:30N 39°22' W 074°24'0 0.8
2017-Jun-25 11:56N 39°21' W 074°23'2 1.5
2017-Jun-25 10:34N 39°23' W 074°25'0 0.1
2017-Jun-25 10:29N 39°23' W 074°25'0 0.0
2017-Jun-25 09:59N 39°23' W 074°25'0 0.0
2017-Jun-25 09:30N 39°23' W 074°25'0 0.0
2017-Jun-25 08:59N 39°23' W 074°25'0 0.0
2017-Jun-25 03:21N 39°23' W 074°25'0 0.0
2017-Jun-25 03:00N 39°23' W 074°25'0 0.0
2017-Jun-25 02:28N 39°23' W 074°25'0 0.0
2017-Jun-25 02:00N 39°23' W 074°25'15 4.1
2017-Jun-24 22:24N 39°33' W 074°11'410.0
2017-Jun-24 21:58N 39°37' W 074°08'510.1
2017-Jun-24 21:29N 39°41' W 074°05'6 9.9
2017-Jun-24 20:55N 39°46' W 074°03'41 9.9
2017-Jun-24 16:50N 40°27' W 073°56'411.5
2017-Jun-24 16:29N 40°30' W 073°60'5 9.6
2017-Jun-24 16:00N 40°34' W 074°02'510.2
2017-Jun-24 15:30N 40°39' W 074°04'2 3.4
2017-Jun-24 15:00N 40°39' W 074°07'0 0.0
2017-Jun-24 14:00N 40°39' W 074°07'0 0.0
2017-Jun-24 13:30N 40°39' W 074°07'0 0.0
2017-Jun-24 13:00N 40°39' W 074°07'2 5.0
2017-Jun-24 12:30N 40°40' W 074°04'1 1.5
2017-Jun-24 12:00N 40°41' W 074°05'0 0.0
2017-Jun-24 11:30N 40°41' W 074°05'0 0.0
2017-Jun-24 11:00N 40°41' W 074°05'0 0.0
2017-Jun-24 10:30N 40°41' W 074°05'0 0.0
2017-Jun-24 10:00N 40°41' W 074°05'0 0.0
2017-Jun-24 09:30N 40°41' W 074°05'0 0.0
2017-Jun-24 09:01N 40°41' W 074°05'0 0.0
2017-Jun-24 08:30N 40°41' W 074°05'0 0.0
2017-Jun-24 08:00N 40°41' W 074°05'1 1.3
2017-Jun-24 07:30N 40°40' W 074°04'4 8.0
2017-Jun-24 07:00N 40°36' W 074°03'4 7.1
2017-Jun-24 06:29N 40°33' W 074°01'43 9.1
2017-Jun-24 01:48N 39°50' W 074°03'310.2
2017-Jun-24 01:28N 39°47' W 074°04'510.2
2017-Jun-24 01:00N 39°42' W 074°05'610.3
2017-Jun-24 00:23N 39°36' W 074°09'18 1.4
2017-Jun-23 11:11N 39°24' W 074°26'0 0.4
2017-Jun-23 10:56N 39°24' W 074°26'0 0.5
2017-Jun-23 10:20N 39°23' W 074°26'1 1.4
2017-Jun-23 09:51N 39°23' W 074°25'0 0.0
2017-Jun-23 08:31N 39°23' W 074°25'0 0.0
2017-Jun-23 08:28N 39°23' W 074°25'0 0.0
2017-Jun-23 07:59N 39°23' W 074°25'0 0.0
2017-Jun-23 07:30N 39°23' W 074°25'0 0.0
2017-Jun-23 07:00N 39°23' W 074°25'1 0.1
2017-Jun-22 21:11N 39°22' W 074°24'0 0.1
2017-Jun-22 20:55N 39°22' W 074°24'1 1.6
2017-Jun-22 20:25N 39°22' W 074°25'1 2.0
2017-Jun-22 19:59N 39°22' W 074°24'0 0.5
2017-Jun-22 19:27N 39°22' W 074°24'0 0.1
2017-Jun-22 18:59N 39°22' W 074°24'0 0.2
2017-Jun-22 18:27N 39°22' W 074°24'0 0.2
2017-Jun-22 17:49N 39°22' W 074°24'0 0.3
2017-Jun-22 17:30N 39°22' W 074°24'4 1.3
2017-Jun-22 14:06N 39°19' W 074°28'1 1.1
2017-Jun-22 13:30N 39°19' W 074°28'1 1.6
2017-Jun-22 13:00N 39°20' W 074°27'2 3.2
2017-Jun-22 12:30N 39°21' W 074°26'2 3.6
2017-Jun-22 11:59N 39°22' W 074°25'2 3.2
2017-Jun-22 11:30N 39°23' W 074°26'0 0.1
2017-Jun-22 10:58N 39°23' W 074°26'0 0.1
2017-Jun-22 10:30N 39°23' W 074°26'1 1.3
2017-Jun-22 10:00N 39°23' W 074°25'0 0.0
2017-Jun-22 09:29N 39°23' W 074°25'0 0.0
2017-Jun-22 08:59N 39°23' W 074°25'0 0.0
2017-Jun-22 08:30N 39°23' W 074°25'0 0.0
2017-Jun-22 07:59N 39°23' W 074°25'0 0.0
2017-Jun-22 07:28N 39°23' W 074°25'0 0.0
2017-Jun-22 06:53N 39°23' W 074°25'0 0.0
2017-Jun-22 06:26N 39°23' W 074°25'0 0.0
2017-Jun-22 06:00N 39°23' W 074°25'0 0.0
2017-Jun-22 05:29N 39°23' W 074°25'0 0.0
2017-Jun-22 05:00N 39°23' W 074°25'0 0.0
2017-Jun-22 04:30N 39°23' W 074°25'0 0.0
2017-Jun-22 04:01N 39°23' W 074°25'0 0.0
2017-Jun-22 03:31N 39°23' W 074°25'0 0.0
2017-Jun-22 03:01N 39°23' W 074°25'0 0.0
2017-Jun-22 02:30N 39°23' W 074°25'0 0.0
2017-Jun-22 02:00N 39°23' W 074°25'0 0.0
2017-Jun-21 11:30N 39°23' W 074°25'0 0.0
2017-Jun-21 10:53N 39°23' W 074°25'0 0.0
2017-Jun-21 10:29N 39°23' W 074°25'0 0.0
2017-Jun-21 09:54N 39°23' W 074°25'  
Track history (hours):
 
Tides and Currents Weather Stations Pressure Air Temp Water Temp Dewpoint Dewpoint Depression Visibility Wind Speed Wind Dir Waves Ship Positions

Shelby

Owner: WEEKS MARINE, INC., CRANFORD, NJ. More information available from US FCC via Universal Licensing System and Coast Guard Vessel Documentation Center.

Last reported at 2017-Jun-27 22:30 UTC. Time now 2017-Jun-27 22:36 UTC.
Position N 40°32' W 074°02'.

Length 22 m; draft 3.1 m.

Type: Tug. MMSI: 366902344.

Date/timePositionNaut miles runAvg speedWind from/ knotsBaromVisibWave heightAir tempDewpointWater temp
2017-Jun-27 22:30N 40°32' W 074°02'4 8.4
2017-Jun-27 21:58N 40°28' W 074°01'0 1.1
2017-Jun-27 21:30N 40°28' W 074°01'1 2.8
2017-Jun-27 21:00N 40°29' W 074°01'2 4.7
2017-Jun-27 20:30N 40°29' W 073°58'3 3.6
2017-Jun-27 19:47N 40°28' W 073°55'1 1.9
2017-Jun-27 19:29N 40°29' W 073°55'4 5.4
2017-Jun-27 18:50N 40°29' W 073°59'2 4.6
2017-Jun-27 18:25N 40°27' W 074°01'0 0.5
2017-Jun-27 17:58N 40°28' W 074°01'1 1.7
2017-Jun-27 17:27N 40°28' W 074°02'1 0.3
2017-Jun-27 12:35N 40°29' W 074°03'0 5.8
2017-Jun-27 12:30N 40°29' W 074°03'2 3.2
2017-Jun-27 11:53N 40°27' W 074°01'1 3.4
2017-Jun-27 11:30N 40°28' W 074°02'4 7.2
2017-Jun-27 11:00N 40°32' W 074°03'3 5.4
2017-Jun-27 10:26N 40°29' W 074°02'2 2.6
2017-Jun-27 09:47N 40°28' W 074°01'1 4.5
2017-Jun-27 09:30N 40°29' W 074°01'2 4.1
2017-Jun-27 09:00N 40°29' W 073°59'3 4.1
2017-Jun-27 08:18N 40°29' W 073°55'1 1.9
2017-Jun-27 07:50N 40°29' W 073°56'410.5
2017-Jun-27 07:26N 40°28' W 074°01'1 2.6
2017-Jun-27 06:59N 40°28' W 074°01'0 0.0
2017-Jun-27 06:29N 40°28' W 074°01'0 0.0
2017-Jun-27 06:00N 40°28' W 074°01'0 0.0
2017-Jun-27 05:30N 40°27' W 074°01'0 0.0
2017-Jun-27 04:50N 40°27' W 074°01'2 4.9
2017-Jun-27 04:30N 40°29' W 073°60'42 9.2
2017-Jun-26 23:52N 39°47' W 074°04'4 9.9
2017-Jun-26 23:30N 39°43' W 074°05'510.4
2017-Jun-26 22:58N 39°38' W 074°08'510.3
2017-Jun-26 22:30N 39°34' W 074°10'16 7.9
2017-Jun-26 20:31N 39°21' W 074°23'0 4.8
2017-Jun-26 20:30N 39°22' W 074°23'1 0.1
2017-Jun-26 00:29N 39°22' W 074°24'1 1.4
2017-Jun-25 23:58N 39°22' W 074°23'2 3.1
2017-Jun-25 23:26N 39°23' W 074°25'0 0.0
2017-Jun-25 22:57N 39°23' W 074°25'0 0.0
2017-Jun-25 22:19N 39°23' W 074°25'0 0.0
2017-Jun-25 21:59N 39°23' W 074°25'0 0.0
2017-Jun-25 21:26N 39°23' W 074°25'0 0.0
2017-Jun-25 20:54N 39°23' W 074°25'2 4.5
2017-Jun-25 20:30N 39°22' W 074°23'0 0.6
2017-Jun-25 19:59N 39°22' W 074°24'0 0.2
2017-Jun-25 19:23N 39°22' W 074°23'2 4.3
2017-Jun-25 18:59N 39°23' W 074°25'0 0.1
2017-Jun-25 13:22N 39°23' W 074°25'1 2.0
2017-Jun-25 12:50N 39°22' W 074°24'0 0.9
2017-Jun-25 12:30N 39°22' W 074°24'0 0.8
2017-Jun-25 11:56N 39°21' W 074°23'2 1.5
2017-Jun-25 10:34N 39°23' W 074°25'0 0.1
2017-Jun-25 10:29N 39°23' W 074°25'0 0.0
2017-Jun-25 09:59N 39°23' W 074°25'0 0.0
2017-Jun-25 09:30N 39°23' W 074°25'0 0.0
2017-Jun-25 08:59N 39°23' W 074°25'0 0.0
2017-Jun-25 03:21N 39°23' W 074°25'0 0.0
2017-Jun-25 03:00N 39°23' W 074°25'0 0.0
2017-Jun-25 02:28N 39°23' W 074°25'0 0.0
2017-Jun-25 02:00N 39°23' W 074°25'15 4.1
2017-Jun-24 22:24N 39°33' W 074°11'410.0
2017-Jun-24 21:58N 39°37' W 074°08'510.1
2017-Jun-24 21:29N 39°41' W 074°05'6 9.9
2017-Jun-24 20:55N 39°46' W 074°03'41 9.9
2017-Jun-24 16:50N 40°27' W 073°56'411.5
2017-Jun-24 16:29N 40°30' W 073°60'5 9.6
2017-Jun-24 16:00N 40°34' W 074°02'510.2
2017-Jun-24 15:30N 40°39' W 074°04'2 3.4
2017-Jun-24 15:00N 40°39' W 074°07'0 0.0
2017-Jun-24 14:00N 40°39' W 074°07'0 0.0
2017-Jun-24 13:30N 40°39' W 074°07'0 0.0
2017-Jun-24 13:00N 40°39' W 074°07'2 5.0
2017-Jun-24 12:30N 40°40' W 074°04'1 1.5
2017-Jun-24 12:00N 40°41' W 074°05'0 0.0
2017-Jun-24 11:30N 40°41' W 074°05'0 0.0
2017-Jun-24 11:00N 40°41' W 074°05'0 0.0
2017-Jun-24 10:30N 40°41' W 074°05'0 0.0
2017-Jun-24 10:00N 40°41' W 074°05'0 0.0
2017-Jun-24 09:30N 40°41' W 074°05'0 0.0
2017-Jun-24 09:01N 40°41' W 074°05'0 0.0
2017-Jun-24 08:30N 40°41' W 074°05'0 0.0
2017-Jun-24 08:00N 40°41' W 074°05'1 1.3
2017-Jun-24 07:30N 40°40' W 074°04'4 8.0
2017-Jun-24 07:00N 40°36' W 074°03'4 7.1
2017-Jun-24 06:29N 40°33' W 074°01'43 9.1
2017-Jun-24 01:48N 39°50' W 074°03'310.2
2017-Jun-24 01:28N 39°47' W 074°04'510.2
2017-Jun-24 01:00N 39°42' W 074°05'610.3
2017-Jun-24 00:23N 39°36' W 074°09'18 1.4
2017-Jun-23 11:11N 39°24' W 074°26'0 0.4
2017-Jun-23 10:56N 39°24' W 074°26'0 0.5
2017-Jun-23 10:20N 39°23' W 074°26'1 1.4
2017-Jun-23 09:51N 39°23' W 074°25'0 0.0
2017-Jun-23 08:31N 39°23' W 074°25'0 0.0
2017-Jun-23 08:28N 39°23' W 074°25'0 0.0
2017-Jun-23 07:59N 39°23' W 074°25'0 0.0
2017-Jun-23 07:30N 39°23' W 074°25'0 0.0
2017-Jun-23 07:00N 39°23' W 074°25'1 0.1
2017-Jun-22 21:11N 39°22' W 074°24'0 0.1
2017-Jun-22 20:55N 39°22' W 074°24'1 1.6
2017-Jun-22 20:25N 39°22' W 074°25'1 2.0
2017-Jun-22 19:59N 39°22' W 074°24'0 0.5
2017-Jun-22 19:27N 39°22' W 074°24'0 0.1
2017-Jun-22 18:59N 39°22' W 074°24'0 0.2
2017-Jun-22 18:27N 39°22' W 074°24'0 0.2
2017-Jun-22 17:49N 39°22' W 074°24'0 0.3
2017-Jun-22 17:30N 39°22' W 074°24'4 1.3
2017-Jun-22 14:06N 39°19' W 074°28'1 1.1
2017-Jun-22 13:30N 39°19' W 074°28'1 1.6
2017-Jun-22 13:00N 39°20' W 074°27'2 3.2
2017-Jun-22 12:30N 39°21' W 074°26'2 3.6
2017-Jun-22 11:59N 39°22' W 074°25'2 3.2
2017-Jun-22 11:30N 39°23' W 074°26'0 0.1
2017-Jun-22 10:58N 39°23' W 074°26'0 0.1
2017-Jun-22 10:30N 39°23' W 074°26'1 1.3
2017-Jun-22 10:00N 39°23' W 074°25'0 0.0
2017-Jun-22 09:29N 39°23' W 074°25'0 0.0
2017-Jun-22 08:59N 39°23' W 074°25'0 0.0
2017-Jun-22 08:30N 39°23' W 074°25'0 0.0
2017-Jun-22 07:59N 39°23' W 074°25'0 0.0
2017-Jun-22 07:28N 39°23' W 074°25'0 0.0
2017-Jun-22 06:53N 39°23' W 074°25'0 0.0
2017-Jun-22 06:26N 39°23' W 074°25'0 0.0
2017-Jun-22 06:00N 39°23' W 074°25'0 0.0
2017-Jun-22 05:29N 39°23' W 074°25'0 0.0
2017-Jun-22 05:00N 39°23' W 074°25'0 0.0
2017-Jun-22 04:30N 39°23' W 074°25'0 0.0
2017-Jun-22 04:01N 39°23' W 074°25'0 0.0
2017-Jun-22 03:31N 39°23' W 074°25'0 0.0
2017-Jun-22 03:01N 39°23' W 074°25'0 0.0
2017-Jun-22 02:30N 39°23' W 074°25'0 0.0
2017-Jun-22 02:00N 39°23' W 074°25'0 0.0
2017-Jun-21 11:30N 39°23' W 074°25'0 0.0
2017-Jun-21 10:53N 39°23' W 074°25'0 0.0
2017-Jun-21 10:29N 39°23' W 074°25'0 0.0
2017-Jun-21 09:54N 39°23' W 074°25'  

Dump ship's entire track history